createdAt,value
2019-01-16T00:00:39.126Z,73.96
2019-01-16T00:03:05.431Z,73.97
2019-01-16T00:05:31.738Z,73.84
2019-01-16T00:07:58.104Z,73.90
2019-01-16T00:10:24.401Z,74.01
2019-01-16T00:12:50.706Z,74.24
2019-01-16T00:15:17.055Z,74.01
2019-01-16T00:17:43.318Z,73.97
2019-01-16T00:20:09.621Z,74.11
2019-01-16T00:22:35.906Z,74.58
2019-01-16T00:25:02.204Z,74.60
2019-01-16T00:27:28.501Z,74.41
2019-01-16T00:29:54.814Z,74.29
2019-01-16T00:32:21.126Z,74.35
2019-01-16T00:34:47.493Z,74.49
2019-01-16T00:37:13.756Z,74.48
2019-01-16T00:39:40.070Z,74.59
2019-01-16T00:42:06.367Z,74.63
2019-01-16T00:44:32.677Z,74.69
2019-01-16T00:46:59.010Z,74.67
2019-01-16T00:49:25.312Z,74.86
2019-01-16T00:51:51.618Z,75.00
2019-01-16T00:54:17.920Z,75.12
2019-01-16T00:56:44.212Z,75.28
2019-01-16T00:59:10.567Z,75.40
2019-01-16T01:01:36.815Z,75.42
2019-01-16T01:04:03.116Z,75.68
2019-01-16T01:06:29.417Z,75.57
2019-01-16T01:08:55.725Z,75.64
2019-01-16T01:11:22.038Z,75.53
2019-01-16T01:13:48.380Z,75.36
2019-01-16T01:16:14.667Z,75.58
2019-01-16T01:18:41.274Z,75.45
2019-01-16T01:21:07.287Z,75.42
2019-01-16T01:23:33.583Z,75.79
2019-01-16T01:25:59.883Z,75.67
2019-01-16T01:28:26.180Z,75.74
2019-01-16T01:30:52.500Z,75.46
2019-01-16T01:33:18.819Z,75.07
2019-01-16T01:35:45.145Z,74.57
2019-01-16T01:38:11.469Z,73.89
2019-01-16T01:40:37.763Z,73.51
2019-01-16T01:43:04.077Z,73.21
2019-01-16T01:45:30.384Z,72.93
2019-01-16T01:47:56.687Z,72.68
2019-01-16T01:50:22.998Z,72.52
2019-01-16T01:52:49.345Z,72.00
2019-01-16T01:55:15.643Z,71.78
2019-01-16T01:57:41.959Z,71.36
2019-01-16T02:00:08.298Z,71.15
2019-01-16T02:02:34.615Z,71.09
2019-01-16T02:05:00.926Z,71.16
2019-01-16T02:07:27.232Z,71.62
2019-01-16T02:09:53.551Z,71.30
2019-01-16T02:12:19.853Z,70.58
2019-01-16T02:14:46.155Z,70.37
2019-01-16T02:17:12.454Z,70.23
2019-01-16T02:19:38.783Z,70.07
2019-01-16T02:22:05.106Z,69.88
2019-01-16T02:24:31.408Z,69.86
2019-01-16T02:26:57.718Z,69.75
2019-01-16T02:29:24.066Z,69.76
2019-01-16T02:31:50.366Z,69.38
2019-01-16T02:34:16.666Z,69.19
2019-01-16T02:36:42.964Z,69.06
2019-01-16T02:39:09.265Z,68.91
2019-01-16T02:41:35.578Z,68.84
2019-01-16T02:44:01.889Z,68.62
2019-01-16T02:46:28.198Z,68.71
2019-01-16T02:48:56.296Z,68.83
2019-01-16T02:51:20.840Z,68.59
2019-01-16T02:53:47.131Z,68.59
2019-01-16T02:56:13.477Z,68.43
2019-01-16T02:58:39.790Z,68.43
2019-01-16T03:01:06.097Z,68.28
2019-01-16T03:03:32.409Z,68.29
2019-01-16T03:05:58.722Z,68.12
2019-01-16T03:08:25.016Z,68.08
2019-01-16T03:10:51.337Z,68.04
2019-01-16T03:13:17.633Z,67.86
2019-01-16T03:15:43.944Z,67.75
2019-01-16T03:18:10.247Z,67.98
2019-01-16T03:20:36.566Z,68.01
2019-01-16T03:23:02.874Z,67.87
2019-01-16T03:25:29.193Z,68.09
2019-01-16T03:27:55.488Z,68.09
2019-01-16T03:30:21.795Z,68.21
2019-01-16T03:32:48.111Z,68.26
2019-01-16T03:35:14.413Z,68.01
2019-01-16T03:37:40.706Z,68.03
2019-01-16T03:40:07.007Z,67.89
2019-01-16T03:42:33.314Z,67.92
2019-01-16T03:44:59.600Z,68.09
2019-01-16T03:47:25.934Z,68.56
2019-01-16T03:49:52.234Z,69.43
2019-01-16T03:52:18.541Z,69.66
2019-01-16T03:54:44.846Z,70.39
2019-01-16T03:57:11.139Z,70.86
2019-01-16T03:59:37.434Z,71.12
2019-01-16T04:02:03.727Z,71.29
2019-01-16T04:04:30.031Z,71.86
2019-01-16T04:06:56.334Z,71.83
2019-01-16T04:09:22.694Z,72.31
2019-01-16T04:11:48.960Z,72.44
2019-01-16T04:14:15.246Z,72.54
2019-01-16T04:16:41.563Z,72.73
2019-01-16T04:19:07.860Z,72.88
2019-01-16T04:21:34.163Z,73.14
2019-01-16T04:24:00.479Z,73.37
2019-01-16T04:26:26.794Z,73.65
2019-01-16T04:28:53.099Z,74.19
2019-01-16T04:31:19.437Z,74.29
2019-01-16T04:33:45.742Z,74.56
2019-01-16T04:36:12.040Z,74.75
2019-01-16T04:38:38.353Z,74.82
2019-01-16T04:41:04.662Z,74.67
2019-01-16T04:43:30.962Z,74.73
2019-01-16T04:45:57.257Z,74.83
2019-01-16T04:48:23.557Z,74.89
2019-01-16T04:50:49.866Z,75.06
2019-01-16T04:53:16.168Z,75.20
2019-01-16T04:55:42.492Z,75.07
2019-01-16T04:58:08.793Z,74.94
2019-01-16T05:00:35.096Z,74.92
2019-01-16T05:03:01.414Z,74.99
2019-01-16T05:05:27.731Z,75.09
2019-01-16T05:07:54.031Z,75.17
2019-01-16T05:10:20.328Z,75.01
2019-01-16T05:12:46.622Z,75.04
2019-01-16T05:15:12.941Z,74.99
2019-01-16T05:17:39.260Z,74.95
2019-01-16T05:20:05.574Z,74.84
2019-01-16T05:22:31.873Z,74.90
2019-01-16T05:24:58.187Z,75.05
2019-01-16T05:27:24.507Z,75.12
2019-01-16T05:29:50.803Z,75.29
2019-01-16T05:32:17.126Z,75.46
2019-01-16T05:34:43.434Z,75.32
2019-01-16T05:37:09.735Z,75.08
2019-01-16T05:39:36.036Z,75.34
2019-01-16T05:42:02.373Z,75.39
2019-01-16T05:44:28.678Z,75.42
2019-01-16T05:46:54.978Z,75.33
2019-01-16T05:49:21.311Z,75.65
2019-01-16T05:51:47.598Z,75.63
2019-01-16T05:54:13.899Z,75.72
2019-01-16T05:56:40.200Z,75.78
2019-01-16T05:59:06.490Z,75.57
2019-01-16T06:01:32.793Z,75.81
2019-01-16T06:03:59.094Z,75.60
2019-01-16T06:06:25.404Z,75.54
2019-01-16T06:08:51.717Z,75.67
2019-01-16T06:11:18.050Z,74.07
2019-01-16T06:13:44.343Z,73.30
2019-01-16T06:16:10.641Z,72.39
2019-01-16T06:18:36.951Z,71.53
2019-01-16T06:21:03.247Z,70.70
2019-01-16T06:23:29.568Z,70.98
2019-01-16T06:25:55.861Z,70.97
2019-01-16T06:28:22.163Z,70.23
2019-01-16T06:30:48.472Z,70.31
2019-01-16T06:33:14.800Z,69.38
2019-01-16T06:35:41.098Z,68.16
2019-01-16T06:38:07.406Z,67.97
2019-01-16T06:40:33.715Z,67.37
2019-01-16T06:43:00.015Z,65.73
2019-01-16T06:45:26.329Z,65.35
2019-01-16T06:47:52.643Z,65.11
2019-01-16T06:50:18.935Z,64.58
2019-01-16T06:52:45.256Z,63.84
2019-01-16T06:55:11.558Z,64.55
2019-01-16T06:57:37.862Z,64.87
2019-01-16T07:00:04.187Z,64.90
2019-01-16T07:02:30.480Z,64.82
2019-01-16T07:04:56.776Z,65.68
2019-01-16T07:07:23.083Z,65.26
2019-01-16T07:09:49.374Z,64.06
2019-01-16T07:12:15.744Z,64.25
2019-01-16T07:14:42.034Z,64.97
2019-01-16T07:17:08.350Z,65.09
2019-01-16T07:19:34.647Z,65.75
2019-01-16T07:22:00.946Z,63.65
2019-01-16T07:24:27.288Z,62.46
2019-01-16T07:26:53.598Z,61.13
2019-01-16T07:29:19.900Z,59.58
2019-01-16T07:31:46.228Z,55.91
2019-01-16T07:34:12.541Z,55.81
2019-01-16T07:36:38.862Z,54.92
2019-01-16T07:39:05.179Z,54.86
2019-01-16T07:41:31.468Z,54.39
2019-01-16T07:43:57.769Z,54.07
2019-01-16T07:46:24.068Z,53.42
2019-01-16T07:48:50.358Z,52.97
2019-01-16T07:51:16.727Z,52.83
2019-01-16T07:53:42.979Z,52.38
2019-01-16T07:56:09.328Z,51.95
2019-01-16T07:58:35.631Z,50.40
2019-01-16T08:01:01.935Z,50.75
2019-01-16T08:03:28.267Z,50.56
2019-01-16T08:05:54.576Z,51.75
2019-01-16T08:08:20.878Z,50.97
2019-01-16T08:10:47.306Z,50.82
2019-01-16T08:13:13.605Z,49.22
2019-01-16T08:15:39.900Z,50.23
2019-01-16T08:18:06.203Z,47.63
2019-01-16T08:20:32.522Z,48.22
2019-01-16T08:22:58.826Z,47.20
2019-01-16T08:25:25.133Z,47.80
2019-01-16T08:27:51.445Z,47.48
2019-01-16T08:30:17.783Z,47.29
2019-01-16T08:32:44.097Z,48.09
2019-01-16T08:35:10.409Z,46.25
2019-01-16T08:37:36.726Z,46.59
2019-01-16T08:40:03.035Z,46.07
2019-01-16T08:42:29.376Z,46.09
2019-01-16T08:44:55.695Z,45.59
2019-01-16T08:47:21.993Z,45.39
2019-01-16T08:49:48.323Z,45.29
2019-01-16T08:52:14.619Z,44.07
2019-01-16T08:54:40.940Z,43.85
2019-01-16T08:57:07.236Z,43.13
2019-01-16T08:59:33.559Z,43.21
2019-01-16T09:01:59.886Z,42.80
2019-01-16T09:04:26.185Z,43.04
2019-01-16T09:06:52.486Z,43.17
2019-01-16T09:09:18.832Z,43.34
2019-01-16T09:11:45.139Z,41.48
2019-01-16T09:14:11.432Z,42.25
2019-01-16T09:16:37.728Z,43.79
2019-01-16T09:19:04.052Z,44.31
2019-01-16T09:21:30.368Z,45.60
2019-01-16T09:23:56.665Z,45.50
2019-01-16T09:26:22.983Z,46.03
2019-01-16T09:28:49.285Z,46.82
2019-01-16T09:31:15.606Z,47.09
2019-01-16T09:33:41.925Z,46.64
2019-01-16T09:36:08.245Z,46.21
2019-01-16T09:38:34.557Z,47.44
2019-01-16T09:41:00.863Z,46.18
2019-01-16T09:43:27.178Z,44.09
2019-01-16T09:45:53.482Z,43.10
2019-01-16T09:48:19.798Z,42.34
2019-01-16T09:50:47.981Z,41.44
2019-01-16T09:53:12.397Z,41.69
2019-01-16T09:55:38.697Z,41.15
2019-01-16T09:58:05.010Z,40.10
2019-01-16T10:00:31.350Z,38.75
2019-01-16T10:02:57.653Z,37.62
2019-01-16T10:05:23.961Z,37.16
2019-01-16T10:07:50.264Z,36.67
2019-01-16T10:10:16.573Z,38.10
2019-01-16T10:12:42.906Z,38.64
2019-01-16T10:15:09.209Z,38.80
2019-01-16T10:17:35.560Z,38.38
2019-01-16T10:20:01.825Z,38.23
2019-01-16T10:22:28.133Z,37.50
2019-01-16T10:24:54.446Z,38.45
2019-01-16T10:27:20.757Z,36.95
2019-01-16T10:29:47.056Z,36.58
2019-01-16T10:32:13.356Z,36.36
2019-01-16T10:34:39.691Z,35.60
2019-01-16T10:37:05.985Z,36.14
2019-01-16T10:39:32.285Z,36.74
2019-01-16T10:41:58.613Z,36.88
2019-01-16T10:44:24.901Z,36.04
2019-01-16T10:46:51.195Z,36.22
2019-01-16T10:49:17.490Z,36.50
2019-01-16T10:51:43.797Z,37.58
2019-01-16T10:54:10.117Z,37.47
2019-01-16T10:56:36.426Z,37.47
2019-01-16T10:59:02.734Z,37.64
2019-01-16T11:01:29.045Z,37.67
2019-01-16T11:03:55.355Z,37.81
2019-01-16T11:06:21.753Z,37.04
2019-01-16T11:08:48.012Z,37.62
2019-01-16T11:11:16.168Z,36.30
2019-01-16T11:13:40.643Z,36.47
2019-01-16T11:16:06.938Z,36.39
2019-01-16T11:18:33.287Z,35.67
2019-01-16T11:20:59.585Z,36.12
2019-01-16T11:23:25.877Z,37.02
2019-01-16T11:25:52.171Z,36.96
2019-01-16T11:28:18.586Z,36.97
2019-01-16T11:30:44.781Z,36.16
2019-01-16T11:33:11.083Z,36.37
2019-01-16T11:35:37.385Z,35.64
2019-01-16T11:38:03.703Z,36.11
2019-01-16T11:40:30.019Z,35.97
2019-01-16T11:42:56.330Z,35.38
2019-01-16T11:45:22.648Z,34.60
2019-01-16T11:47:48.949Z,35.56
2019-01-16T11:50:15.244Z,35.56
2019-01-16T11:52:41.566Z,35.11
2019-01-16T11:55:07.882Z,34.76
2019-01-16T11:57:34.182Z,35.06
2019-01-16T12:00:00.501Z,34.99
2019-01-16T12:02:26.814Z,34.39
2019-01-16T12:04:53.113Z,34.85
2019-01-16T12:07:19.416Z,34.90
2019-01-16T12:09:45.739Z,35.16
2019-01-16T12:12:12.075Z,35.17
2019-01-16T12:14:38.427Z,35.59
2019-01-16T12:17:04.684Z,35.81
2019-01-16T12:19:30.994Z,35.58
2019-01-16T12:21:57.296Z,36.08
2019-01-16T12:24:23.617Z,35.91
2019-01-16T12:26:49.946Z,36.04
2019-01-16T12:29:16.246Z,36.48
2019-01-16T12:31:42.562Z,36.53
2019-01-16T12:34:08.902Z,36.79
2019-01-16T12:36:35.247Z,36.86
2019-01-16T12:39:01.689Z,36.57
2019-01-16T12:41:28.004Z,37.42
2019-01-16T12:43:54.312Z,38.01
2019-01-16T12:46:20.682Z,38.27
2019-01-16T12:48:46.955Z,37.82
2019-01-16T12:51:13.258Z,37.45
2019-01-16T12:53:39.566Z,37.12
2019-01-16T12:56:05.886Z,37.14
2019-01-16T12:58:34.441Z,37.67
2019-01-16T13:00:58.691Z,37.23
2019-01-16T13:03:25.109Z,37.51
2019-01-16T13:05:51.449Z,37.96
2019-01-16T13:08:17.756Z,37.45
2019-01-16T13:10:44.067Z,37.38
2019-01-16T13:13:10.379Z,36.80
2019-01-16T13:15:36.730Z,37.73
2019-01-16T13:18:03.029Z,38.52
2019-01-16T13:20:29.318Z,40.71
2019-01-16T13:22:55.677Z,41.99
2019-01-16T13:25:21.954Z,42.91
2019-01-16T13:27:48.275Z,43.05
2019-01-16T13:30:14.582Z,41.96
2019-01-16T13:32:40.956Z,41.35
2019-01-16T13:35:07.703Z,41.48
2019-01-16T13:37:34.250Z,42.05
2019-01-16T13:40:00.551Z,41.49
2019-01-16T13:42:26.862Z,40.86
2019-01-16T13:44:53.174Z,40.53
2019-01-16T13:47:19.479Z,40.28
2019-01-16T13:49:45.835Z,40.22
2019-01-16T13:52:12.149Z,40.36
2019-01-16T13:54:38.651Z,40.24
2019-01-16T13:57:05.105Z,40.50
2019-01-16T13:59:31.411Z,41.13
2019-01-16T14:01:57.719Z,42.20
2019-01-16T14:04:24.010Z,43.48
2019-01-16T14:06:50.330Z,43.54
2019-01-16T14:09:16.628Z,44.31
2019-01-16T14:11:43.005Z,45.14
2019-01-16T14:14:09.317Z,45.41
2019-01-16T14:16:35.613Z,45.67
2019-01-16T14:19:02.084Z,46.28
2019-01-16T14:21:28.379Z,46.44
2019-01-16T14:23:54.679Z,46.60
2019-01-16T14:26:20.983Z,46.79
2019-01-16T14:28:47.274Z,46.55
2019-01-16T14:31:13.626Z,46.72
2019-01-16T14:33:39.925Z,46.88
2019-01-16T14:36:06.220Z,46.64
2019-01-16T14:38:32.514Z,46.64
2019-01-16T14:40:58.812Z,47.04
2019-01-16T14:43:25.121Z,47.02
2019-01-16T14:45:51.454Z,47.53
2019-01-16T14:48:17.819Z,47.30
2019-01-16T14:50:44.107Z,47.29
2019-01-16T14:53:10.389Z,47.44
2019-01-16T14:55:36.704Z,47.57
2019-01-16T14:58:03.010Z,47.71
2019-01-16T15:00:29.321Z,48.00
2019-01-16T15:02:55.635Z,48.35
2019-01-16T15:05:21.962Z,48.78
2019-01-16T15:07:48.574Z,49.34
2019-01-16T15:10:14.865Z,49.90
2019-01-16T15:12:41.167Z,49.93
2019-01-16T15:15:09.799Z,50.31
2019-01-16T15:17:33.793Z,50.75
2019-01-16T15:20:00.222Z,50.76
2019-01-16T15:22:26.446Z,50.63
2019-01-16T15:24:52.763Z,50.67
2019-01-16T15:27:19.094Z,50.77
2019-01-16T15:29:45.389Z,50.85
2019-01-16T15:32:11.748Z,51.02
2019-01-16T15:34:38.106Z,51.33
2019-01-16T15:37:04.405Z,51.57
2019-01-16T15:39:30.713Z,51.74
2019-01-16T15:41:57.081Z,51.47
2019-01-16T15:44:23.384Z,51.17
2019-01-16T15:46:49.731Z,51.28
2019-01-16T15:49:16.041Z,51.21
2019-01-16T15:51:42.341Z,51.12
2019-01-16T15:54:08.639Z,50.68
2019-01-16T15:56:34.932Z,50.54
2019-01-16T15:59:01.291Z,50.42
2019-01-16T16:01:27.608Z,50.22
2019-01-16T16:03:53.920Z,50.05
2019-01-16T16:06:20.236Z,50.00
2019-01-16T16:08:46.578Z,49.85
2019-01-16T16:11:12.850Z,49.96
2019-01-16T16:13:39.169Z,49.51
2019-01-16T16:16:05.482Z,49.66
2019-01-16T16:18:31.775Z,49.27
2019-01-16T16:20:58.097Z,49.11
2019-01-16T16:23:24.395Z,49.08
2019-01-16T16:25:50.694Z,49.04
2019-01-16T16:28:17.008Z,49.24
2019-01-16T16:30:43.307Z,49.53
2019-01-16T16:33:09.610Z,49.68
2019-01-16T16:35:35.924Z,49.94
2019-01-16T16:38:02.245Z,50.01
2019-01-16T16:40:28.532Z,50.45
2019-01-16T16:42:54.830Z,50.81
2019-01-16T16:45:21.135Z,50.59
2019-01-16T16:47:47.442Z,50.48
2019-01-16T16:50:13.756Z,50.86
2019-01-16T16:52:40.070Z,50.65
2019-01-16T16:55:06.377Z,50.87
2019-01-16T16:57:32.671Z,50.91
2019-01-16T16:59:58.974Z,50.46
2019-01-16T17:02:25.279Z,50.29
2019-01-16T17:04:51.614Z,50.11
2019-01-16T17:07:17.920Z,50.14
2019-01-16T17:09:44.220Z,50.41
2019-01-16T17:12:10.521Z,50.15
2019-01-16T17:14:36.832Z,50.16
2019-01-16T17:17:03.140Z,50.28
2019-01-16T17:19:29.441Z,50.53
2019-01-16T17:21:55.755Z,50.38
2019-01-16T17:24:22.088Z,50.38
2019-01-16T17:26:48.501Z,50.10
2019-01-16T17:29:14.794Z,49.54
2019-01-16T17:31:41.110Z,49.92
2019-01-16T17:34:07.463Z,49.78
2019-01-16T17:36:35.808Z,49.93
2019-01-16T17:39:00.270Z,49.93
2019-01-16T17:41:26.550Z,50.47
2019-01-16T17:43:52.878Z,50.31
2019-01-16T17:46:19.314Z,50.45
2019-01-16T17:48:45.715Z,50.25
2019-01-16T17:51:12.011Z,50.17
2019-01-16T17:53:38.321Z,49.85
2019-01-16T17:56:04.628Z,49.91
2019-01-16T17:58:30.954Z,49.37
2019-01-16T18:00:57.406Z,48.94
2019-01-16T18:03:23.687Z,49.08
2019-01-16T18:05:50.310Z,49.50
2019-01-16T18:08:16.610Z,49.76
2019-01-16T18:10:42.908Z,49.78
2019-01-16T18:13:09.203Z,49.53
2019-01-16T18:15:35.529Z,49.39
2019-01-16T18:18:01.868Z,49.59
2019-01-16T18:20:28.232Z,49.47
2019-01-16T18:22:54.570Z,49.63
2019-01-16T18:25:20.877Z,49.77
2019-01-16T18:27:47.230Z,50.43
2019-01-16T18:30:13.525Z,50.96
2019-01-16T18:32:39.837Z,51.76
2019-01-16T18:35:06.209Z,51.59
2019-01-16T18:37:35.105Z,51.86
2019-01-16T18:40:01.401Z,52.50
2019-01-16T18:42:27.763Z,52.74
2019-01-16T18:44:54.060Z,53.06
2019-01-16T18:47:20.397Z,53.50
2019-01-16T18:49:46.705Z,54.42
2019-01-16T18:52:13.040Z,56.17
2019-01-16T18:54:39.350Z,57.31
2019-01-16T18:57:05.652Z,57.99
2019-01-16T18:59:32.110Z,58.24
2019-01-16T19:02:03.086Z,58.81
2019-01-16T19:04:29.520Z,58.96
2019-01-16T19:06:55.821Z,59.25
2019-01-16T19:09:22.133Z,59.33
2019-01-16T19:11:48.443Z,58.67
2019-01-16T19:14:14.750Z,58.65
2019-01-16T19:16:41.060Z,58.59
2019-01-16T19:19:07.379Z,58.77
2019-01-16T19:21:33.678Z,59.23
2019-01-16T19:23:59.980Z,60.19
2019-01-16T19:26:26.316Z,60.65
2019-01-16T19:28:52.635Z,61.34
2019-01-16T19:31:18.936Z,61.52
2019-01-16T19:33:45.229Z,61.75
2019-01-16T19:36:11.583Z,62.25
2019-01-16T19:38:37.864Z,62.45
2019-01-16T19:41:04.182Z,62.93
2019-01-16T19:43:30.529Z,63.20
2019-01-16T19:45:56.830Z,63.60
2019-01-16T19:48:23.138Z,63.66
2019-01-16T19:50:49.501Z,63.79
2019-01-16T19:53:17.904Z,63.77
2019-01-16T19:55:44.241Z,63.61
2019-01-16T19:58:10.823Z,63.74
2019-01-16T20:00:37.117Z,63.86
2019-01-16T20:03:03.420Z,64.04
2019-01-16T20:05:29.769Z,64.21
2019-01-16T20:07:57.781Z,63.63
2019-01-16T20:10:22.770Z,63.81
2019-01-16T20:12:49.063Z,63.94
2019-01-16T20:15:15.370Z,64.37
2019-01-16T20:17:41.668Z,65.13
2019-01-16T20:20:07.978Z,65.34
2019-01-16T20:22:34.290Z,65.17
2019-01-16T20:25:00.595Z,65.40
2019-01-16T20:27:26.952Z,66.35
2019-01-16T20:29:53.280Z,64.73
2019-01-16T20:32:19.567Z,65.25
2019-01-16T20:34:48.516Z,66.40
2019-01-16T20:37:13.433Z,66.05
2019-01-16T20:39:38.522Z,65.76
2019-01-16T20:42:04.826Z,65.05
2019-01-16T20:44:31.344Z,65.10
2019-01-16T20:47:00.510Z,65.40
2019-01-16T20:49:26.888Z,65.68
2019-01-16T20:51:53.208Z,65.71
2019-01-16T20:54:19.568Z,65.16
2019-01-16T20:56:45.817Z,65.05
2019-01-16T20:59:12.371Z,65.47
2019-01-16T21:01:38.641Z,65.24
2019-01-16T21:04:06.473Z,65.39
2019-01-16T21:06:31.389Z,65.36
2019-01-16T21:08:57.686Z,65.34
2019-01-16T21:11:24.017Z,65.62
2019-01-16T21:13:50.334Z,65.65
2019-01-16T21:16:16.631Z,65.60
2019-01-16T21:18:42.943Z,65.49
2019-01-16T21:21:09.248Z,65.26
2019-01-16T21:23:35.584Z,65.39
2019-01-16T21:26:01.898Z,65.35
2019-01-16T21:28:28.235Z,65.48
2019-01-16T21:30:54.587Z,65.73
2019-01-16T21:33:20.897Z,65.97
2019-01-16T21:35:49.197Z,65.17
2019-01-16T21:38:13.731Z,65.50
2019-01-16T21:40:42.267Z,65.12
2019-01-16T21:43:08.569Z,65.29
2019-01-16T21:45:34.872Z,64.90
2019-01-16T21:48:01.167Z,64.72
2019-01-16T21:50:27.528Z,64.48
2019-01-16T21:52:53.891Z,64.50
2019-01-16T21:55:20.170Z,64.38
2019-01-16T21:57:46.471Z,65.05
2019-01-16T22:00:12.804Z,65.34
2019-01-16T22:02:39.121Z,65.26
2019-01-16T22:05:05.446Z,64.62
2019-01-16T22:07:31.760Z,65.26
2019-01-16T22:09:58.059Z,65.50
2019-01-16T22:12:24.361Z,66.03
2019-01-16T22:14:50.667Z,65.79
2019-01-16T22:17:16.991Z,66.12
2019-01-16T22:19:43.302Z,66.85
2019-01-16T22:22:09.608Z,67.41
2019-01-16T22:24:35.913Z,67.54
2019-01-16T22:27:02.224Z,67.72
2019-01-16T22:29:28.550Z,67.61
2019-01-16T22:31:54.838Z,67.40
2019-01-16T22:34:21.137Z,67.43
2019-01-16T22:36:47.448Z,67.34
2019-01-16T22:39:13.770Z,68.02
2019-01-16T22:41:40.088Z,68.05
2019-01-16T22:44:06.399Z,68.12
2019-01-16T22:46:32.700Z,67.92
2019-01-16T22:48:59.011Z,68.07
2019-01-16T22:51:25.315Z,68.05
2019-01-16T22:53:51.682Z,67.85
2019-01-16T22:56:17.992Z,67.72
2019-01-16T22:58:44.279Z,67.76
2019-01-16T23:01:10.603Z,67.72
2019-01-16T23:03:36.896Z,67.08
2019-01-16T23:06:03.220Z,66.93
2019-01-16T23:08:29.537Z,66.53
2019-01-16T23:10:55.853Z,66.45
2019-01-16T23:13:22.166Z,65.79
2019-01-16T23:15:48.469Z,65.50
2019-01-16T23:18:14.781Z,65.16
2019-01-16T23:20:41.077Z,65.60
2019-01-16T23:23:07.385Z,65.37
2019-01-16T23:25:33.714Z,64.99
2019-01-16T23:28:00.025Z,65.45
2019-01-16T23:30:26.324Z,65.62
2019-01-16T23:32:52.624Z,66.03
2019-01-16T23:35:18.933Z,66.65
2019-01-16T23:37:45.228Z,67.04
2019-01-16T23:40:11.534Z,67.39
2019-01-16T23:42:37.839Z,67.66
2019-01-16T23:45:04.156Z,67.90
2019-01-16T23:47:30.463Z,67.96
2019-01-16T23:49:56.779Z,68.20
2019-01-16T23:52:23.096Z,68.51
2019-01-16T23:54:49.404Z,68.54
2019-01-16T23:57:15.705Z,68.61
2019-01-16T23:59:42.023Z,68.84
